Time;durP1;ratioP1;P1;durP2;ratioP2;P2;SDS_P1;SDS_P2;PMS_P1;PMS_P2;Temp;Humidity;BMP_temperature;BMP_pressure;BME280_temperature;BME280_humidity;BME280_pressure;Samples;Min_cycle;Max_cycle;Signal;HPM_P1;HPM_P2
2023/08/12 00:02:21;;;;;;;;;2.00;2.00;;;;;;;;5076790;28;8895;-96
2023/08/12 00:04:47;;;;;;;;;2.00;2.00;;;;;;;;5078888;28;8922;-96
2023/08/12 00:07:12;;;;;;;;;2.33;2.33;;;;;;;;5067060;28;8832;-96
2023/08/12 00:09:38;;;;;;;;;2.33;2.33;;;;;;;;5063174;28;11469;-96
2023/08/12 00:12:03;;;;;;;;;2.00;2.00;;;;;;;;5056577;28;9725;-96
2023/08/12 00:14:28;;;;;;;;;2.00;2.00;;;;;;;;5057063;28;8853;-96
2023/08/12 00:16:54;;;;;;;;;4.33;4.33;;;;;;;;5059913;28;8807;-96
2023/08/12 00:19:19;;;;;;;;;2.00;2.00;;;;;;;;5078660;28;8921;-96
2023/08/12 00:21:44;;;;;;;;;3.00;3.00;;;;;;;;5076919;28;9441;-96
2023/08/12 00:24:09;;;;;;;;;4.67;3.00;;;;;;;;5075842;28;8820;-96
2023/08/12 00:26:35;;;;;;;;;2.67;2.67;;;;;;;;5076784;28;9429;-96
2023/08/12 00:29:00;;;;;;;;;3.33;3.33;;;;;;;;5068561;28;8826;-96
2023/08/12 00:31:25;;;;;;;;;4.00;4.00;;;;;;;;5073386;28;8840;-96
2023/08/12 00:33:50;;;;;;;;;5.00;5.00;;;;;;;;5070262;28;8824;-96
2023/08/12 00:36:16;;;;;;;;;3.67;3.00;;;;;;;;5075075;28;8875;-96
2023/08/12 00:38:41;;;;;;;;;2.00;2.00;;;;;;;;5060657;28;8860;-96
2023/08/12 00:41:06;;;;;;;;;3.00;3.00;;;;;;;;5063653;28;9574;-96
2023/08/12 00:43:31;;;;;;;;;3.00;3.00;;;;;;;;5059122;28;9578;-96
2023/08/12 00:45:57;;;;;;;;;1.00;1.00;;;;;;;;5077289;28;8950;-96
2023/08/12 00:48:23;;;;;;;;;2.67;2.67;;;;;;;;5071913;28;8833;-96
2023/08/12 00:50:48;;;;;;;;;1.67;1.67;;;;;;;;5063814;28;8823;-96
2023/08/12 00:53:14;;;;;;;;;2.33;2.33;;;;;;;;5067236;28;8804;-96
2023/08/12 00:55:40;;;;;;;;;3.00;3.00;;;;;;;;5075033;28;8793;-96
2023/08/12 00:58:05;;;;;;;;;3.67;3.67;;;;;;;;5069367;28;8921;-96
2023/08/12 01:00:31;;;;;;;;;3.33;3.33;;;;;;;;5065612;28;8830;-95
2023/08/12 01:02:57;;;;;;;;;2.00;2.00;;;;;;;;5063056;28;8801;-96
2023/08/12 01:05:23;;;;;;;;;2.00;2.00;;;;;;;;5072939;28;8913;-96
2023/08/12 01:07:48;;;;;;;;;3.00;3.00;;;;;;;;5063503;28;8810;-95
2023/08/12 01:10:15;;;;;;;;;2.00;2.00;;;;;;;;5055572;28;9554;-96
2023/08/12 01:12:53;;;;;;;;;3.50;3.50;;;;;;;;5055950;28;8827;-96
2023/08/12 01:15:21;;;;;;;;;2.25;2.25;;;;;;;;5059267;28;8795;-96
2023/08/12 01:17:51;;;;;;;;;3.75;3.75;;;;;;;;5067641;28;8815;-96
2023/08/12 01:20:17;;;;;;;;;4.00;4.00;;;;;;;;5071706;28;8791;-96
2023/08/12 01:22:43;;;;;;;;;3.00;3.00;;;;;;;;5060704;28;8897;-96
2023/08/12 01:25:09;;;;;;;;;3.00;3.00;;;;;;;;5071954;28;8829;-96
2023/08/12 01:27:35;;;;;;;;;3.67;3.67;;;;;;;;5062677;28;8827;-96
2023/08/12 01:30:01;;;;;;;;;3.00;3.00;;;;;;;;5069657;28;8801;-96
2023/08/12 01:32:32;;;;;;;;;3.00;3.00;;;;;;;;5075365;28;8804;-96
2023/08/12 01:35:06;;;;;;;;;4.75;4.75;;;;;;;;5074723;28;8890;-95
2023/08/12 01:37:32;;;;;;;;;3.75;3.75;;;;;;;;5073362;28;8817;-95
2023/08/12 01:40:00;;;;;;;;;6.33;6.33;;;;;;;;5074329;28;8801;-94
2023/08/12 01:42:25;;;;;;;;;4.75;4.25;;;;;;;;5075221;28;11057;-94
2023/08/12 01:44:51;;;;;;;;;5.33;4.00;;;;;;;;5070846;28;8799;-94
2023/08/12 01:47:16;;;;;;;;;4.00;4.00;;;;;;;;3875456;28;34027277;-95
2023/08/12 01:50:32;;;;;;;;;4.50;4.50;;;;;;;;5106458;28;14555;-92
2023/08/12 01:52:58;;;;;;;;;3.67;3.67;;;;;;;;5091050;28;8914;-94
2023/08/12 01:55:23;;;;;;;;;5.00;5.00;;;;;;;;5091987;28;8843;-93
2023/08/12 01:57:48;;;;;;;;;4.00;4.00;;;;;;;;5086900;28;8835;-94
2023/08/12 02:00:15;;;;;;;;;6.67;6.67;;;;;;;;5085757;28;8839;-94
2023/08/12 02:02:40;;;;;;;;;4.50;4.50;;;;;;;;5084882;28;8819;-93
2023/08/12 02:05:05;;;;;;;;;7.33;7.33;;;;;;;;5087360;28;8808;-94
2023/08/12 02:25:25;;;;;;;;;;;;;;;;;;177049;27;261079187;-94
2023/08/12 02:33:11;;;;;;;;;1.50;1.50;;;;;;;;2;212816496;212816496;-94
2023/08/12 02:38:04;;;;;;;;;1.00;1.00;;;;;;;;176387;27;179762093;-94
2023/08/12 02:40:30;;;;;;;;;4.50;4.50;;;;;;;;658190;27;83316106;-94
2023/08/12 02:43:30;;;;;;;;;;;;;;;;;;39269;27;179017763;-95
2023/08/12 02:47:25;;;;;;;;;1.50;1.50;;;;;;;;504237;28;211181893;-94
2023/08/12 02:54:05;;;;;;;;;3.50;3.50;;;;;;;;165506;28;145212234;-94
2023/08/12 02:56:50;;;;;;;;;;;;;;;;;;312041;27;155518427;-94
2023/08/12 02:59:16;;;;;;;;;4.00;4.00;;;;;;;;5108598;27;28482;-94
2023/08/12 03:01:44;;;;;;;;;2.67;2.67;;;;;;;;5103561;27;28602;-94
2023/08/12 03:04:09;;;;;;;;;4.00;4.00;;;;;;;;4724822;27;10859476;-94
2023/08/12 03:06:34;;;;;;;;;6.67;6.67;;;;;;;;5110450;27;28365;-95
2023/08/12 03:09:00;;;;;;;;;3.33;3.33;;;;;;;;4925811;27;5487565;-94
2023/08/12 03:12:21;;;;;;;;;;;;;;;;;;2920895;27;79122469;-94
2023/08/12 03:14:46;;;;;;;;;4.33;4.33;;;;;;;;3530215;27;12143588;-94
2023/08/12 03:17:14;;;;;;;;;;;;;;;;;;2835926;27;34202057;-95
2023/08/12 03:20:32;;;;;;;;;2.50;2.50;;;;;;;;327902;28;99498626;-94
2023/08/12 03:22:58;;;;;;;;;3.67;3.67;;;;;;;;1229708;28;46716765;-95
2023/08/12 03:25:23;;;;;;;;;3.00;3.00;;;;;;;;4157074;27;15307510;-94
2023/08/12 03:27:48;;;;;;;;;3.67;3.67;;;;;;;;3799426;28;15423024;-94
2023/08/12 03:30:16;;;;;;;;;4.00;4.00;;;;;;;;4649362;28;8378991;-94
2023/08/12 03:34:22;;;;;;;;;;;;;;;;;;2889547;28;160465661;-95
2023/08/12 03:36:48;;;;;;;;;4.33;4.33;;;;;;;;2952929;27;60844706;-94
2023/08/12 03:39:13;;;;;;;;;;;;;;;;;;4125155;27;27238012;-94
2023/08/12 03:41:39;;;;;;;;;4.00;4.00;;;;;;;;5098461;28;28602;-95
2023/08/12 03:44:04;;;;;;;;;4.00;4.00;;;;;;;;5098521;27;28290;-96
2023/08/12 03:46:29;;;;;;;;;3.00;3.00;;;;;;;;5095515;27;28432;-95
2023/08/12 03:48:55;;;;;;;;;4.33;4.33;;;;;;;;5084531;27;28386;-94
2023/08/12 03:51:20;;;;;;;;;3.00;3.00;;;;;;;;4203232;28;11435228;-95
2023/08/12 03:53:45;;;;;;;;;2.33;2.33;;;;;;;;5093382;27;28289;-95
2023/08/12 03:56:14;;;;;;;;;3.67;3.67;;;;;;;;5089101;27;28497;-95
2023/08/12 03:58:40;;;;;;;;;2.00;2.00;;;;;;;;5098054;27;28246;-95
2023/08/12 04:01:05;;;;;;;;;2.33;2.33;;;;;;;;5090982;27;28412;-94
2023/08/12 04:03:31;;;;;;;;;2.00;2.00;;;;;;;;5086974;27;29586;-96
2023/08/12 04:05:56;;;;;;;;;0.67;0.67;;;;;;;;5093854;27;29214;-95
2023/08/12 04:08:22;;;;;;;;;0.00;0.00;;;;;;;;5093052;27;28246;-95
2023/08/12 04:10:47;;;;;;;;;0.00;0.00;;;;;;;;5093228;27;28238;-95
2023/08/12 04:13:13;;;;;;;;;0.00;0.00;;;;;;;;5096700;27;28499;-95
2023/08/12 04:15:38;;;;;;;;;0.00;0.00;;;;;;;;5096577;27;28510;-94
2023/08/12 04:18:03;;;;;;;;;0.00;0.00;;;;;;;;5094636;27;28342;-96
2023/08/12 04:20:29;;;;;;;;;0.00;0.00;;;;;;;;5097731;27;28459;-95
2023/08/12 04:22:54;;;;;;;;;0.00;0.00;;;;;;;;5090315;27;28615;-94
2023/08/12 04:25:19;;;;;;;;;0.00;0.00;;;;;;;;5086360;27;28505;-96
2023/08/12 04:27:47;;;;;;;;;0.00;0.00;;;;;;;;5097764;27;28578;-94
2023/08/12 04:30:13;;;;;;;;;0.00;0.00;;;;;;;;5093848;27;28296;-95
2023/08/12 04:32:39;;;;;;;;;0.00;0.00;;;;;;;;5094940;28;28796;-95
2023/08/12 04:35:04;;;;;;;;;0.00;0.00;;;;;;;;5087313;27;28312;-95
2023/08/12 04:37:31;;;;;;;;;0.00;0.00;;;;;;;;5097887;27;28333;-95
2023/08/12 04:39:57;;;;;;;;;0.00;0.00;;;;;;;;5096104;27;28327;-95
2023/08/12 04:42:22;;;;;;;;;0.00;0.00;;;;;;;;5091293;27;28509;-95
2023/08/12 04:44:47;;;;;;;;;0.00;0.00;;;;;;;;5087285;28;28255;-94
2023/08/12 04:47:13;;;;;;;;;0.00;0.00;;;;;;;;5089233;28;28556;-96
2023/08/12 04:49:38;;;;;;;;;0.00;0.00;;;;;;;;5087451;27;28630;-95
2023/08/12 04:52:04;;;;;;;;;0.00;0.00;;;;;;;;5096262;27;30066;-95
2023/08/12 04:54:29;;;;;;;;;0.00;0.00;;;;;;;;5090830;27;28429;-95
2023/08/12 04:56:56;;;;;;;;;0.00;0.00;;;;;;;;5097337;27;28427;-95
2023/08/12 04:59:22;;;;;;;;;0.00;0.00;;;;;;;;5088977;27;28423;-95
2023/08/12 05:01:47;;;;;;;;;0.00;0.00;;;;;;;;5096505;27;29975;-95
2023/08/12 05:04:12;;;;;;;;;0.00;0.00;;;;;;;;5094941;27;28452;-94
2023/08/12 05:06:37;;;;;;;;;0.00;0.00;;;;;;;;5098135;27;28596;-94
2023/08/12 05:09:03;;;;;;;;;0.00;0.00;;;;;;;;5097624;27;38369;-95
2023/08/12 05:11:28;;;;;;;;;0.00;0.00;;;;;;;;5080297;27;47733;-94
2023/08/12 05:13:57;;;;;;;;;0.00;0.00;;;;;;;;5091100;27;45299;-95
2023/08/12 05:16:22;;;;;;;;;0.00;0.00;;;;;;;;5095851;27;28315;-94
2023/08/12 05:18:47;;;;;;;;;0.00;0.00;;;;;;;;5097670;27;28443;-95
2023/08/12 05:21:13;;;;;;;;;0.00;0.00;;;;;;;;5096871;27;28303;-95
2023/08/12 05:23:38;;;;;;;;;0.00;0.00;;;;;;;;5094941;27;29605;-95
2023/08/12 05:26:03;;;;;;;;;0.00;0.00;;;;;;;;5093098;27;28439;-95
2023/08/12 05:28:28;;;;;;;;;0.00;0.00;;;;;;;;5098009;27;36216;-95
2023/08/12 05:30:55;;;;;;;;;0.00;0.00;;;;;;;;5093223;28;30692;-95
2023/08/12 05:33:20;;;;;;;;;0.00;0.00;;;;;;;;5097553;27;28395;-95
2023/08/12 05:35:47;;;;;;;;;0.00;0.00;;;;;;;;5095333;27;28760;-95
2023/08/12 05:38:12;;;;;;;;;0.00;0.00;;;;;;;;5096776;27;28339;-95
2023/08/12 05:40:38;;;;;;;;;0.00;0.00;;;;;;;;5092454;28;30706;-94
2023/08/12 05:43:03;;;;;;;;;0.00;0.00;;;;;;;;5093577;28;28424;-95
2023/08/12 05:45:28;;;;;;;;;0.67;0.67;;;;;;;;5094948;27;28518;-94
2023/08/12 05:47:54;;;;;;;;;0.67;0.67;;;;;;;;5094610;27;29582;-95
2023/08/12 05:50:19;;;;;;;;;0.00;0.00;;;;;;;;5099240;27;29733;-95
2023/08/12 05:52:44;;;;;;;;;0.67;0.67;;;;;;;;5116730;27;28400;-95
2023/08/12 05:55:09;;;;;;;;;0.00;0.00;;;;;;;;5118397;27;28298;-94
2023/08/12 05:57:35;;;;;;;;;2.33;1.00;;;;;;;;5097066;27;28507;-95
2023/08/12 06:00:00;;;;;;;;;0.00;0.00;;;;;;;;5091665;27;29263;-95
2023/08/12 06:02:26;;;;;;;;;1.00;1.00;;;;;;;;5091889;28;28884;-95
2023/08/12 06:04:51;;;;;;;;;0.00;0.00;;;;;;;;5097846;27;28325;-95
2023/08/12 06:07:18;;;;;;;;;0.00;0.00;;;;;;;;5082140;27;28409;-95
2023/08/12 06:09:43;;;;;;;;;0.00;0.00;;;;;;;;5092759;28;28394;-95
2023/08/12 06:12:09;;;;;;;;;0.00;0.00;;;;;;;;5092053;27;29045;-95
2023/08/12 06:14:36;;;;;;;;;0.33;0.33;;;;;;;;5096866;27;31871;-95
2023/08/12 06:17:02;;;;;;;;;0.33;0.33;;;;;;;;5097623;27;28508;-95
2023/08/12 06:19:27;;;;;;;;;0.00;0.00;;;;;;;;5094012;27;28854;-94
2023/08/12 06:21:52;;;;;;;;;0.00;0.00;;;;;;;;5094697;27;28572;-95
2023/08/12 06:24:17;;;;;;;;;0.00;0.00;;;;;;;;5095978;27;28454;-95
2023/08/12 06:26:43;;;;;;;;;0.67;0.67;;;;;;;;5097193;27;28424;-94
2023/08/12 06:29:08;;;;;;;;;0.00;0.00;;;;;;;;5096082;27;28411;-94
2023/08/12 06:31:33;;;;;;;;;0.00;0.00;;;;;;;;5095917;27;28361;-94
2023/08/12 06:33:59;;;;;;;;;1.00;1.00;;;;;;;;5097305;27;28233;-94
2023/08/12 06:36:24;;;;;;;;;2.00;1.00;;;;;;;;5096014;27;28708;-94
2023/08/12 06:38:49;;;;;;;;;0.00;0.00;;;;;;;;5096772;27;28526;-95
2023/08/12 06:42:21;;;;;;;;;;;;;;;;;;2812414;28;132075996;-94
2023/08/12 06:44:49;;;;;;;;;0.00;0.00;;;;;;;;5087450;28;28459;-95
2023/08/12 06:47:15;;;;;;;;;0.00;0.00;;;;;;;;5095538;27;28443;-94
2023/08/12 06:49:40;;;;;;;;;0.00;0.00;;;;;;;;5091891;27;45420;-94
2023/08/12 06:52:05;;;;;;;;;0.00;0.00;;;;;;;;5085702;27;28458;-94
2023/08/12 06:54:30;;;;;;;;;0.00;0.00;;;;;;;;5086457;27;42134;-95
2023/08/12 06:56:56;;;;;;;;;0.67;0.67;;;;;;;;5095833;28;45277;-94
2023/08/12 06:59:21;;;;;;;;;0.67;0.00;;;;;;;;5098974;27;28323;-94
2023/08/12 07:01:46;;;;;;;;;1.00;1.00;;;;;;;;5095215;27;28306;-93
2023/08/12 07:04:11;;;;;;;;;0.00;0.00;;;;;;;;5099987;27;28571;-94
2023/08/12 07:06:36;;;;;;;;;0.67;0.67;;;;;;;;5108345;27;45514;-94
2023/08/12 07:09:03;;;;;;;;;1.00;1.00;;;;;;;;5095649;27;28379;-90
2023/08/12 07:11:28;;;;;;;;;1.00;0.67;;;;;;;;5089480;28;28500;-90
2023/08/12 07:13:53;;;;;;;;;0.33;0.33;;;;;;;;5080270;27;28684;-92
2023/08/12 07:16:18;;;;;;;;;1.33;1.33;;;;;;;;5092445;28;28766;-92
2023/08/12 07:18:44;;;;;;;;;0.00;0.00;;;;;;;;5087116;27;28726;-93
2023/08/12 07:21:09;;;;;;;;;0.33;0.33;;;;;;;;5094832;28;28495;-92
2023/08/12 07:23:34;;;;;;;;;1.00;1.00;;;;;;;;5095258;27;28317;-93
2023/08/12 07:25:59;;;;;;;;;0.00;0.00;;;;;;;;5090734;27;28292;-91
2023/08/12 07:28:25;;;;;;;;;0.00;0.00;;;;;;;;5089208;28;42442;-90
2023/08/12 07:30:50;;;;;;;;;1.00;1.00;;;;;;;;5091744;28;44877;-91
2023/08/12 07:33:15;;;;;;;;;0.00;0.00;;;;;;;;5090110;28;28336;-90
2023/08/12 07:35:41;;;;;;;;;0.67;0.67;;;;;;;;5085279;28;29687;-90
2023/08/12 07:38:06;;;;;;;;;0.33;0.33;;;;;;;;5086441;28;28479;-90
2023/08/12 07:40:31;;;;;;;;;0.00;0.00;;;;;;;;5090805;28;28412;-90
2023/08/12 07:42:56;;;;;;;;;0.00;0.00;;;;;;;;5094544;27;28370;-89
2023/08/12 07:45:22;;;;;;;;;0.00;0.00;;;;;;;;5109002;27;29563;-90
2023/08/12 07:47:48;;;;;;;;;0.00;0.00;;;;;;;;5106793;27;8842;-90
2023/08/12 07:50:13;;;;;;;;;0.00;0.00;;;;;;;;5103529;28;8830;-91
2023/08/12 07:52:39;;;;;;;;;0.00;0.00;;;;;;;;5105437;27;8855;-90
2023/08/12 07:55:04;;;;;;;;;0.00;0.00;;;;;;;;5111364;27;8787;-90
2023/08/12 07:57:32;;;;;;;;;0.00;0.00;;;;;;;;5108270;27;8824;-90
2023/08/12 07:59:57;;;;;;;;;0.00;0.00;;;;;;;;5119127;27;8767;-91
2023/08/12 08:02:22;;;;;;;;;0.00;0.00;;;;;;;;5112904;27;8833;-90
2023/08/12 08:04:49;;;;;;;;;2.00;0.00;;;;;;;;5118537;27;8817;-91
2023/08/12 08:07:14;;;;;;;;;0.00;0.00;;;;;;;;5107205;27;8890;-92
2023/08/12 08:09:39;;;;;;;;;0.00;0.00;;;;;;;;5101278;28;8806;-92
2023/08/12 08:12:10;;;;;;;;;1.00;1.00;;;;;;;;5098840;28;8921;-92
2023/08/12 08:14:36;;;;;;;;;0.00;0.00;;;;;;;;5107328;27;8995;-92
2023/08/12 08:17:03;;;;;;;;;0.00;0.00;;;;;;;;5116147;27;8954;-93
2023/08/12 08:19:31;;;;;;;;;1.00;1.00;;;;;;;;5104395;27;8731;-92
2023/08/12 08:22:18;;;;;;;;;0.50;0.50;;;;;;;;5107765;27;8937;-94
2023/08/12 08:24:42;;;;;;;;;0.00;0.00;;;;;;;;5110852;27;8912;-94
2023/08/12 08:27:18;;;;;;;;;0.33;0.33;;;;;;;;5116515;28;8810;-94
2023/08/12 08:29:53;;;;;;;;;;;;;;;;;;;;;
2023/08/12 08:32:29;;;;;;;;;0.00;0.00;;;;;;;;5109100;28;35087;-94
2023/08/12 08:34:59;;;;;;;;;0.00;0.00;;;;;;;;5112999;28;8779;-94
2023/08/12 08:37:42;;;;;;;;;;;;;;;;;;;;;
2023/08/12 08:40:18;;;;;;;;;1.25;1.00;;;;;;;;5116409;28;35369;-94
2023/08/12 08:42:55;;;;;;;;;0.00;0.00;;;;;;;;5107740;27;8798;-94
2023/08/12 08:45:31;;;;;;;;;;;;;;;;;;;;;
2023/08/12 08:47:59;;;;;;;;;0.50;0.50;;;;;;;;5115365;28;37089;-94
2023/08/12 08:50:45;;;;;;;;;0.75;0.75;;;;;;;;5117433;27;8818;-94
2023/08/12 08:53:30;;;;;;;;;;;;;;;;;;;;;
2023/08/12 08:56:27;;;;;;;;;0.25;0.25;;;;;;;;5109621;28;36761;-94
2023/08/12 09:04:56;;;;;;;;;1.00;1.00;;;;;;;;5104046;28;8771;-95
2023/08/12 09:07:24;;;;;;;;;0.33;0.33;;;;;;;;5106645;27;9521;-94
2023/08/12 09:09:52;;;;;;;;;0.00;0.00;;;;;;;;5130521;27;8814;-95
2023/08/12 09:12:21;;;;;;;;;0.50;0.50;;;;;;;;5121302;27;8796;-95
2023/08/12 09:14:49;;;;;;;;;0.00;0.00;;;;;;;;5138577;27;8780;-95
2023/08/12 09:17:15;;;;;;;;;0.75;0.00;;;;;;;;5115762;27;8803;-94
2023/08/12 09:19:40;;;;;;;;;0.00;0.00;;;;;;;;5114091;28;8826;-96
2023/08/12 09:22:07;;;;;;;;;0.00;0.00;;;;;;;;5111574;27;8845;-95
2023/08/12 09:24:32;;;;;;;;;1.50;0.00;;;;;;;;5102023;27;9714;-94
2023/08/12 09:26:57;;;;;;;;;0.33;0.33;;;;;;;;5106861;27;8811;-95
2023/08/12 09:29:24;;;;;;;;;1.00;1.00;;;;;;;;5111911;28;8819;-94
2023/08/12 09:31:49;;;;;;;;;0.00;0.00;;;;;;;;5101445;28;8872;-94
2023/08/12 09:34:15;;;;;;;;;1.00;1.00;;;;;;;;5105333;27;8899;-94
2023/08/12 09:36:40;;;;;;;;;0.00;0.00;;;;;;;;5103251;27;8827;-94
2023/08/12 09:39:06;;;;;;;;;0.00;0.00;;;;;;;;5106445;27;8806;-96
2023/08/12 09:41:31;;;;;;;;;0.00;0.00;;;;;;;;5109027;27;8813;-95
2023/08/12 09:43:57;;;;;;;;;0.00;0.00;;;;;;;;5111112;27;8819;-95
2023/08/12 09:46:25;;;;;;;;;0.33;0.33;;;;;;;;5103677;27;8956;-95
2023/08/12 09:48:52;;;;;;;;;0.00;0.00;;;;;;;;5104357;28;8810;-94
2023/08/12 09:51:17;;;;;;;;;0.50;0.50;;;;;;;;5110468;27;9900;-94
2023/08/12 09:53:43;;;;;;;;;0.00;0.00;;;;;;;;5104071;27;8935;-95
2023/08/12 09:56:11;;;;;;;;;0.00;0.00;;;;;;;;5113815;27;8815;-94
2023/08/12 09:58:39;;;;;;;;;0.75;0.75;;;;;;;;5112028;27;8900;-94
2023/08/12 10:01:05;;;;;;;;;0.00;0.00;;;;;;;;5113899;27;8829;-94
2023/08/12 10:03:32;;;;;;;;;0.00;0.00;;;;;;;;5109555;27;8787;-94
2023/08/12 10:05:57;;;;;;;;;0.50;0.50;;;;;;;;5106226;28;8792;-93
2023/08/12 10:08:23;;;;;;;;;0.00;0.00;;;;;;;;5109922;27;8793;-94
2023/08/12 10:10:48;;;;;;;;;0.00;0.00;;;;;;;;5100304;27;9588;-94
2023/08/12 10:13:14;;;;;;;;;0.00;0.00;;;;;;;;5105125;27;8782;-94
2023/08/12 10:15:40;;;;;;;;;0.75;0.50;;;;;;;;5110598;28;8833;-94
2023/08/12 10:18:05;;;;;;;;;0.00;0.00;;;;;;;;5106401;27;8783;-94
2023/08/12 10:20:31;;;;;;;;;0.00;0.00;;;;;;;;5109814;27;8791;-93
2023/08/12 10:22:58;;;;;;;;;0.50;0.50;;;;;;;;5105006;27;8898;-95
2023/08/12 10:25:24;;;;;;;;;0.00;0.00;;;;;;;;5111569;28;8799;-94
2023/08/12 10:27:50;;;;;;;;;0.33;0.33;;;;;;;;5114573;27;8791;-94
2023/08/12 10:30:15;;;;;;;;;0.00;0.00;;;;;;;;5107168;27;8787;-94
2023/08/12 10:32:45;;;;;;;;;0.00;0.00;;;;;;;;5108798;27;8805;-94
2023/08/12 10:35:10;;;;;;;;;0.00;0.00;;;;;;;;5105639;27;27910;-94
2023/08/12 10:37:35;;;;;;;;;0.00;0.00;;;;;;;;5114639;28;8834;-95
2023/08/12 10:40:07;;;;;;;;;0.00;0.00;;;;;;;;5119076;27;8915;-93
2023/08/12 10:42:50;;;;;;;;;0.00;0.00;;;;;;;;5119809;27;8799;-95
2023/08/12 10:45:17;;;;;;;;;0.00;0.00;;;;;;;;5112117;27;22453;-95
2023/08/12 11:01:44;;;;;;;;;0.00;0.00;;;;;;;;5219468;22;8868;-95
2023/08/12 11:04:18;;;;;;;;;0.00;0.00;;;;;;;;5093340;28;8806;-96
2023/08/12 11:09:19;;;;;;;;;0.00;0.00;;;;;;;;5164099;22;8821;-96
2023/08/12 11:16:54;;;;;;;;;1.00;1.00;;;;;;;;5684531;22;8851;-96
2023/08/12 11:19:20;;;;;;;;;1.00;1.00;;;;;;;;5089035;28;8872;-96
2023/08/12 11:21:48;;;;;;;;;0.00;0.00;;;;;;;;5091613;28;8851;-96
2023/08/12 11:24:15;;;;;;;;;0.00;0.00;;;;;;;;5062898;28;8830;-96
2023/08/12 11:26:41;;;;;;;;;0.00;0.00;;;;;;;;5076809;28;8801;-96
2023/08/12 11:29:11;;;;;;;;;0.33;0.33;;;;;;;;5081573;28;8794;-95
2023/08/12 11:31:36;;;;;;;;;0.50;0.00;;;;;;;;5070216;28;9822;-96
2023/08/12 11:34:01;;;;;;;;;0.00;0.00;;;;;;;;5055289;28;8872;-96
2023/08/12 11:36:31;;;;;;;;;0.00;0.00;;;;;;;;5077518;28;8802;-95
2023/08/12 11:38:56;;;;;;;;;0.00;0.00;;;;;;;;5077216;28;8814;-96
2023/08/12 11:41:22;;;;;;;;;0.67;0.67;;;;;;;;5077405;28;8830;-95
2023/08/12 11:43:47;;;;;;;;;2.00;1.00;;;;;;;;5076435;28;8818;-96
2023/08/12 11:46:15;;;;;;;;;1.00;1.00;;;;;;;;5078525;28;8848;-96
2023/08/12 11:48:43;;;;;;;;;0.00;0.00;;;;;;;;5060685;28;8864;-96
2023/08/12 11:51:08;;;;;;;;;1.00;1.00;;;;;;;;5060542;28;8868;-96
2023/08/12 11:53:33;;;;;;;;;2.00;2.00;;;;;;;;5077272;28;8830;-96
2023/08/12 11:55:59;;;;;;;;;0.00;0.00;;;;;;;;5076836;28;8826;-95
2023/08/12 11:58:24;;;;;;;;;0.00;0.00;;;;;;;;5065420;28;8867;-96
2023/08/12 12:00:49;;;;;;;;;0.33;0.33;;;;;;;;5061197;28;8865;-96
2023/08/12 12:03:15;;;;;;;;;0.00;0.00;;;;;;;;5058323;28;8841;-96
2023/08/12 12:05:41;;;;;;;;;0.00;0.00;;;;;;;;5078042;28;8797;-96
2023/08/12 12:08:08;;;;;;;;;0.33;0.33;;;;;;;;5077067;28;8822;-96
2023/08/12 12:10:34;;;;;;;;;0.00;0.00;;;;;;;;5049572;28;8842;-96
2023/08/12 12:13:09;;;;;;;;;0.00;0.00;;;;;;;;5073735;28;9568;-96
2023/08/12 12:15:43;;;;;;;;;0.00;0.00;;;;;;;;5081398;28;8790;-96
2023/08/12 12:18:12;;;;;;;;;0.25;0.25;;;;;;;;5082500;28;8775;-96
2023/08/12 12:20:57;;;;;;;;;0.50;0.50;;;;;;;;5062588;28;8758;-96
2023/08/12 12:23:26;;;;;;;;;1.00;1.00;;;;;;;;5072301;28;8809;-96
2023/08/12 12:28:25;;;;;;;;;0.50;0.50;;;;;;;;5105199;28;8834;-96
2023/08/12 12:30:50;;;;;;;;;0.00;0.00;;;;;;;;5098213;28;8874;-96
2023/08/12 12:33:25;;;;;;;;;0.33;0.33;;;;;;;;5095381;28;8862;-96
2023/08/12 12:35:53;;;;;;;;;1.00;1.00;;;;;;;;5099773;28;8739;-96
2023/08/12 12:43:29;;;;;;;;;1.00;1.00;;;;;;;;4814311;22;8833;-96
2023/08/12 12:45:54;;;;;;;;;1.00;0.00;;;;;;;;5138574;27;9577;-96
2023/08/12 12:48:20;;;;;;;;;1.00;1.00;;;;;;;;5124872;28;8811;-96
2023/08/12 12:50:45;;;;;;;;;0.67;0.67;;;;;;;;5117856;27;8850;-96
2023/08/12 12:53:10;;;;;;;;;0.00;0.00;;;;;;;;5103312;28;8856;-96
2023/08/12 12:55:36;;;;;;;;;0.00;0.00;;;;;;;;5102774;28;8821;-96
2023/08/12 12:58:01;;;;;;;;;0.00;0.00;;;;;;;;5102775;28;8825;-96
2023/08/12 13:00:26;;;;;;;;;1.00;1.00;;;;;;;;5104554;28;8825;-96
2023/08/12 13:02:51;;;;;;;;;1.00;1.00;;;;;;;;5104788;28;8849;-96
2023/08/12 13:05:17;;;;;;;;;1.00;1.00;;;;;;;;5108769;28;8829;-96
2023/08/12 13:07:45;;;;;;;;;0.33;0.33;;;;;;;;5115106;28;8827;-96
2023/08/12 13:10:11;;;;;;;;;0.50;0.50;;;;;;;;5104108;28;11145;-96
2023/08/12 13:12:39;;;;;;;;;0.50;0.50;;;;;;;;5106743;28;8831;-96
2023/08/12 13:15:04;;;;;;;;;0.00;0.00;;;;;;;;5105248;28;8807;-96
2023/08/12 13:17:30;;;;;;;;;0.00;0.00;;;;;;;;5116047;28;8947;-96
2023/08/12 13:19:55;;;;;;;;;0.67;0.67;;;;;;;;5116140;27;8866;-96
2023/08/12 13:22:20;;;;;;;;;0.00;0.00;;;;;;;;5109438;27;8914;-96
2023/08/12 13:24:48;;;;;;;;;0.33;0.33;;;;;;;;5104880;28;8835;-96
2023/08/12 13:27:14;;;;;;;;;0.00;0.00;;;;;;;;5107555;27;8871;-96
2023/08/12 13:29:39;;;;;;;;;1.00;1.00;;;;;;;;5100290;28;8801;-96
2023/08/12 13:32:05;;;;;;;;;0.00;0.00;;;;;;;;5105633;28;8866;-96
2023/08/12 13:34:30;;;;;;;;;1.00;1.00;;;;;;;;5099616;28;8823;-96
2023/08/12 13:36:59;;;;;;;;;0.67;0.67;;;;;;;;5118664;27;10566;-96
2023/08/12 13:39:24;;;;;;;;;0.00;0.00;;;;;;;;5104522;28;8807;-96
2023/08/12 13:41:49;;;;;;;;;0.67;0.67;;;;;;;;5110449;28;8867;-96
2023/08/12 13:44:15;;;;;;;;;1.00;1.00;;;;;;;;5103409;28;8830;-96
2023/08/12 13:46:40;;;;;;;;;1.00;1.00;;;;;;;;5101850;28;8822;-96
2023/08/12 13:49:06;;;;;;;;;2.00;2.00;;;;;;;;5104931;28;8845;-96
2023/08/12 13:51:31;;;;;;;;;1.00;1.00;;;;;;;;5111182;27;8977;-96
2023/08/12 13:53:56;;;;;;;;;2.00;2.00;;;;;;;;5099048;28;8806;-96
2023/08/12 13:56:22;;;;;;;;;2.67;0.00;;;;;;;;5080023;28;8800;-96
2023/08/12 13:58:47;;;;;;;;;1.00;1.00;;;;;;;;5100751;27;8833;-96
2023/08/12 14:01:15;;;;;;;;;1.00;1.00;;;;;;;;5105257;28;8837;-96
2023/08/12 14:03:40;;;;;;;;;1.50;1.50;;;;;;;;5099216;28;8833;-96
2023/08/12 14:06:05;;;;;;;;;1.00;1.00;;;;;;;;5099274;28;8821;-96
2023/08/12 14:08:31;;;;;;;;;1.00;1.00;;;;;;;;5116630;28;8816;-96
2023/08/12 14:10:56;;;;;;;;;0.00;0.00;;;;;;;;5091085;28;8848;-96
2023/08/12 14:13:21;;;;;;;;;1.00;1.00;;;;;;;;5100991;28;8914;-96
2023/08/12 14:15:46;;;;;;;;;0.67;0.67;;;;;;;;5100799;28;8886;-96
2023/08/12 14:18:12;;;;;;;;;0.00;0.00;;;;;;;;5104663;28;8817;-96
2023/08/12 14:20:42;;;;;;;;;1.00;1.00;;;;;;;;5100126;28;8887;-96
2023/08/12 14:23:08;;;;;;;;;1.00;1.00;;;;;;;;5098238;28;8750;-96
2023/08/12 14:25:33;;;;;;;;;1.00;1.00;;;;;;;;5105534;28;8813;-96
2023/08/12 14:27:59;;;;;;;;;0.00;0.00;;;;;;;;5106439;28;8821;-96
2023/08/12 14:30:27;;;;;;;;;1.33;1.33;;;;;;;;5100547;28;8818;-96
2023/08/12 14:32:53;;;;;;;;;0.00;0.00;;;;;;;;5095393;28;8826;-96
2023/08/12 14:35:18;;;;;;;;;1.00;1.00;;;;;;;;5093110;28;8943;-96
2023/08/12 14:37:43;;;;;;;;;1.00;1.00;;;;;;;;5095476;28;8814;-96
2023/08/12 14:40:09;;;;;;;;;1.00;1.00;;;;;;;;5093906;28;8856;-96
2023/08/12 14:42:34;;;;;;;;;0.33;0.33;;;;;;;;5095643;28;8847;-96
2023/08/12 14:45:00;;;;;;;;;0.67;0.67;;;;;;;;5094360;28;8844;-96
2023/08/12 14:47:25;;;;;;;;;1.00;1.00;;;;;;;;5094812;28;8885;-96
2023/08/12 14:49:52;;;;;;;;;0.67;0.67;;;;;;;;5092885;28;8895;-96
2023/08/12 14:52:18;;;;;;;;;0.00;0.00;;;;;;;;5093853;28;8907;-95
2023/08/12 14:54:44;;;;;;;;;0.00;0.00;;;;;;;;5095581;28;8790;-95
2023/08/12 14:57:09;;;;;;;;;0.00;0.00;;;;;;;;5093025;28;8843;-96
2023/08/12 14:59:34;;;;;;;;;0.67;0.67;;;;;;;;5093291;28;8914;-96
2023/08/12 15:01:59;;;;;;;;;0.00;0.00;;;;;;;;5097697;28;8861;-96
2023/08/12 15:04:24;;;;;;;;;0.00;0.00;;;;;;;;5110968;28;8823;-96
2023/08/12 15:06:50;;;;;;;;;0.00;0.00;;;;;;;;5097024;28;8841;-96
2023/08/12 15:09:15;;;;;;;;;1.00;1.00;;;;;;;;5094506;28;8838;-96
2023/08/12 15:11:40;;;;;;;;;0.33;0.33;;;;;;;;5094051;28;9261;-96
2023/08/12 15:14:06;;;;;;;;;0.00;0.00;;;;;;;;5094831;28;8843;-96
2023/08/12 15:16:31;;;;;;;;;0.00;0.00;;;;;;;;5095802;28;8854;-96
2023/08/12 15:18:57;;;;;;;;;1.67;1.67;;;;;;;;5095076;28;9508;-96
2023/08/12 15:21:22;;;;;;;;;0.00;0.00;;;;;;;;5098356;28;8822;-95
2023/08/12 15:23:47;;;;;;;;;0.33;0.33;;;;;;;;5106320;28;8834;-96
2023/08/12 15:26:12;;;;;;;;;0.00;0.00;;;;;;;;5100546;27;8813;-96
2023/08/12 15:28:38;;;;;;;;;0.33;0.33;;;;;;;;5102141;28;8857;-96
2023/08/12 15:31:03;;;;;;;;;1.50;1.00;;;;;;;;5097147;28;9693;-96
2023/08/12 15:33:29;;;;;;;;;0.00;0.00;;;;;;;;5098414;28;8853;-96
2023/08/12 15:35:54;;;;;;;;;0.00;0.00;;;;;;;;5098189;28;8817;-95
2023/08/12 15:38:19;;;;;;;;;0.00;0.00;;;;;;;;5096753;28;8825;-96
2023/08/12 15:40:45;;;;;;;;;0.00;0.00;;;;;;;;5095287;28;8932;-95
2023/08/12 15:43:10;;;;;;;;;0.00;0.00;;;;;;;;5115672;28;8889;-95
2023/08/12 15:45:39;;;;;;;;;1.33;0.00;;;;;;;;5096877;28;8821;-95
2023/08/12 15:48:04;;;;;;;;;1.00;1.00;;;;;;;;5096642;28;8786;-95
2023/08/12 15:50:30;;;;;;;;;0.00;0.00;;;;;;;;5097360;28;8926;-96
2023/08/12 15:52:55;;;;;;;;;1.00;1.00;;;;;;;;5097223;28;8908;-95
2023/08/12 15:55:20;;;;;;;;;1.00;1.00;;;;;;;;5096551;28;8942;-96
2023/08/12 15:57:45;;;;;;;;;1.33;1.33;;;;;;;;5085950;28;8810;-95
2023/08/12 16:00:11;;;;;;;;;1.00;1.00;;;;;;;;5097251;28;8834;-95
2023/08/12 16:02:36;;;;;;;;;3.00;1.00;;;;;;;;5098634;28;8836;-95
2023/08/12 16:05:01;;;;;;;;;1.00;1.00;;;;;;;;5103341;28;8866;-94